Time;durP1;ratioP1;P1;durP2;ratioP2;P2;SDS_P1;SDS_P2;PMS_P1;PMS_P2;Temp;Humidity;BMP_temperature;BMP_pressure;BME280_temperature;BME280_humidity;BME280_pressure;Samples;Min_cycle;Max_cycle;Signal;HPM_P1;HPM_P2
2023/09/13 00:00:14;;;;;;;;;;;;;;;;;;4972024;28;19969;-60
2023/09/13 00:02:42;;;;;;;;;;;;;;;;;;4954013;28;21265;-61
2023/09/13 00:05:10;;;;;;;;;;;;;;;;;;4956847;28;19944;-62
2023/09/13 00:07:35;;;;;;;;;;;;;;;;;;4959441;28;19928;-59
2023/09/13 00:10:03;;;;;;;;;;;;;;;;;;4977498;28;19921;-60
2023/09/13 00:15:45;;;;;;;;;;;;;;;;;;4986724;28;19932;-61
2023/09/13 00:18:13;;;;;;;;;;;;;;;;;;4971734;28;19921;-60
2023/09/13 00:20:38;;;;;;;;;;;;;;;;;;4984828;28;19921;-60
2023/09/13 00:23:06;;;;;;;;;;;;;;;;;;4975276;28;19921;-59
2023/09/13 00:25:34;;;;;;;;;;;;;;;;;;4942833;28;19998;-60
2023/09/13 00:28:09;;;;;;;;;;;;;;;;;;4964012;28;19921;-60
2023/09/13 00:30:37;;;;;;;;;;;;;;;;;;4954579;28;22325;-60
2023/09/13 00:33:05;;;;;;;;;;;;;;;;;;4964336;28;21691;-60
2023/09/13 00:35:33;;;;;;;;;;;;;;;;;;4980678;28;19925;-59
2023/09/13 00:38:05;;;;;;;;;;;;;;;;;;4962896;28;19999;-60
2023/09/13 00:40:30;;;;;;;;;;;;;;;;;;4987900;28;20007;-60
2023/09/13 00:42:59;;;;;;;;;;;;;;;;;;4974724;28;20017;-60
2023/09/13 00:45:25;;;;;;;;;;;;;;;;;;4956797;28;19965;-59
2023/09/13 00:47:53;;;;;;;;;;;;;;;;;;4942207;28;19917;-60
2023/09/13 00:50:22;;;;;;;;;;;;;;;;;;4978311;28;20004;-61
2023/09/13 00:52:47;;;;;;;;;;;;;;;;;;4973300;28;20818;-60
2023/09/13 00:55:16;;;;;;;;;;;;;;;;;;4960412;28;19922;-59
2023/09/13 00:57:46;;;;;;;;;;;;;;;;;;4958867;28;20326;-60
2023/09/13 01:00:11;;;;;;;;;;;;;;;;;;4979555;28;20914;-62
2023/09/13 01:02:42;;;;;;;;;;;;;;;;;;4963991;28;19959;-59
2023/09/13 01:05:09;;;;;;;;;;;;;;;;;;4969872;28;19921;-60
2023/09/13 01:07:37;;;;;;;;;;;;;;;;;;4973083;28;19999;-59
2023/09/13 01:10:03;;;;;;;;;;;;;;;;;;4990120;28;20404;-60
2023/09/13 01:12:29;;;;;;;;;;;;;;;;;;4974775;28;19971;-59
2023/09/13 01:14:55;;;;;;;;;;;;;;;;;;4959056;28;19922;-60
2023/09/13 01:17:23;;;;;;;;;;;;;;;;;;4970729;28;20036;-59
2023/09/13 01:19:51;;;;;;;;;;;;;;;;;;4994550;28;20051;-59
2023/09/13 01:22:16;;;;;;;;;;;;;;;;;;4988726;28;19917;-59
2023/09/13 01:24:41;;;;;;;;;;;;;;;;;;4979367;28;19921;-59
2023/09/13 01:27:09;;;;;;;;;;;;;;;;;;4979599;28;21814;-59
2023/09/13 01:29:34;;;;;;;;;;;;;;;;;;4973524;28;19917;-59
2023/09/13 01:32:03;;;;;;;;;;;;;;;;;;4984024;28;19926;-59
2023/09/13 01:34:28;;;;;;;;;;;;;;;;;;4977461;28;19929;-61
2023/09/13 01:36:54;;;;;;;;;;;;;;;;;;4959549;28;20939;-59
2023/09/13 01:39:22;;;;;;;;;;;;;;;;;;4983689;28;19922;-60
2023/09/13 01:41:49;;;;;;;;;;;;;;;;;;4979776;28;19918;-59
2023/09/13 01:44:15;;;;;;;;;;;;;;;;;;4960987;28;20025;-59
2023/09/13 01:46:40;;;;;;;;;;;;;;;;;;4957400;28;20122;-59
2023/09/13 01:49:08;;;;;;;;;;;;;;;;;;4963002;28;19943;-60
2023/09/13 01:51:36;;;;;;;;;;;;;;;;;;4989147;28;19929;-59
2023/09/13 01:54:01;;;;;;;;;;;;;;;;;;4993138;28;19931;-59
2023/09/13 01:56:26;;;;;;;;;;;;;;;;;;4973841;28;19917;-59
2023/09/13 01:58:51;;;;;;;;;;;;;;;;;;4970646;28;20004;-59
2023/09/13 02:01:19;;;;;;;;;;;;;;;;;;4962967;28;19967;-59
2023/09/13 02:03:47;;;;;;;;;;;;;;;;;;4955417;28;19921;-60
2023/09/13 02:06:12;;;;;;;;;;;;;;;;;;4945836;28;20063;-60
2023/09/13 02:08:37;;;;;;;;;;;;;;;;;;4958210;28;20009;-60
2023/09/13 02:11:06;;;;;;;;;;;;;;;;;;4979857;28;19948;-59
2023/09/13 02:13:31;;;;;;;;;;;;;;;;;;4938682;28;20646;-60
2023/09/13 02:15:56;;;;;;;;;;;;;;;;;;4968703;28;19968;-59
2023/09/13 02:18:24;;;;;;;;;;;;;;;;;;4973540;28;20020;-59
2023/09/13 02:20:50;;;;;;;;;;;;;;;;;;4971861;28;19921;-59
2023/09/13 02:23:18;;;;;;;;;;;;;;;;;;4969789;28;20110;-59
2023/09/13 02:25:46;;;;;;;;;;;;;;;;;;4964361;28;19924;-60
2023/09/13 02:28:11;;;;;;;;;;;;;;;;;;4978398;28;20016;-59
2023/09/13 02:30:36;;;;;;;;;;;;;;;;;;4955751;28;19929;-60
2023/09/13 02:33:02;;;;;;;;;;;;;;;;;;4966564;28;19921;-59
2023/09/13 02:35:29;;;;;;;;;;;;;;;;;;4954167;28;20553;-60
2023/09/13 02:37:58;;;;;;;;;;;;;;;;;;4982267;28;19932;-60
2023/09/13 02:40:23;;;;;;;;;;;;;;;;;;4980177;28;19929;-60
2023/09/13 02:42:49;;;;;;;;;;;;;;;;;;4979719;28;19962;-60
2023/09/13 02:45:14;;;;;;;;;;;;;;;;;;4944978;28;19921;-60
2023/09/13 02:47:39;;;;;;;;;;;;;;;;;;4959003;28;19925;-59
2023/09/13 02:50:05;;;;;;;;;;;;;;;;;;4977390;28;20016;-61
2023/09/13 02:52:30;;;;;;;;;;;;;;;;;;4967372;28;19931;-60
2023/09/13 02:54:56;;;;;;;;;;;;;;;;;;4975185;28;19975;-60
2023/09/13 02:57:21;;;;;;;;;;;;;;;;;;4978177;28;19921;-60
2023/09/13 02:59:46;;;;;;;;;;;;;;;;;;4980678;28;19956;-60
2023/09/13 03:02:12;;;;;;;;;;;;;;;;;;4955338;28;19922;-60
2023/09/13 03:04:37;;;;;;;;;;;;;;;;;;4958836;28;19928;-60
2023/09/13 03:07:03;;;;;;;;;;;;;;;;;;4978667;28;19918;-60
2023/09/13 03:09:31;;;;;;;;;;;;;;;;;;4960313;28;20020;-60
2023/09/13 03:11:56;;;;;;;;;;;;;;;;;;4961836;28;19921;-60
2023/09/13 03:14:21;;;;;;;;;;;;;;;;;;4962073;28;19921;-60
2023/09/13 03:16:52;;;;;;;;;;;;;;;;;;4956111;28;21974;-60
2023/09/13 03:19:20;;;;;;;;;;;;;;;;;;4975677;28;19928;-60
2023/09/13 03:21:45;;;;;;;;;;;;;;;;;;4941317;28;19921;-60
2023/09/13 03:24:13;;;;;;;;;;;;;;;;;;4964570;28;20063;-60
2023/09/13 03:26:38;;;;;;;;;;;;;;;;;;4983974;28;19918;-59
2023/09/13 03:29:06;;;;;;;;;;;;;;;;;;4949495;28;20387;-60
2023/09/13 03:31:32;;;;;;;;;;;;;;;;;;4938988;28;19929;-59
2023/09/13 03:33:59;;;;;;;;;;;;;;;;;;4944387;28;20059;-60
2023/09/13 03:36:24;;;;;;;;;;;;;;;;;;4977387;28;20006;-60
2023/09/13 03:38:50;;;;;;;;;;;;;;;;;;4979303;28;19979;-60
2023/09/13 03:41:15;;;;;;;;;;;;;;;;;;4947858;28;20822;-60
2023/09/13 03:43:40;;;;;;;;;;;;;;;;;;4971122;28;19979;-61
2023/09/13 03:46:08;;;;;;;;;;;;;;;;;;4957132;28;19944;-61
2023/09/13 03:48:33;;;;;;;;;;;;;;;;;;4984675;28;19922;-59
2023/09/13 03:51:01;;;;;;;;;;;;;;;;;;4967945;28;19926;-59
2023/09/13 03:53:27;;;;;;;;;;;;;;;;;;4974131;28;19921;-59
2023/09/13 03:55:52;;;;;;;;;;;;;;;;;;4955391;28;19917;-59
2023/09/13 03:58:20;;;;;;;;;;;;;;;;;;4983478;28;19956;-60
2023/09/13 04:00:48;;;;;;;;;;;;;;;;;;4966525;28;20194;-59
2023/09/13 04:03:13;;;;;;;;;;;;;;;;;;4973455;28;20427;-60
2023/09/13 04:05:41;;;;;;;;;;;;;;;;;;4977832;28;20700;-61
2023/09/13 04:08:08;;;;;;;;;;;;;;;;;;4956790;28;19929;-62
2023/09/13 04:10:34;;;;;;;;;;;;;;;;;;4972232;28;21199;-66
2023/09/13 04:12:59;;;;;;;;;;;;;;;;;;4973697;28;20055;-68
2023/09/13 04:15:24;;;;;;;;;;;;;;;;;;4992484;28;20578;-66
2023/09/13 04:17:50;;;;;;;;;;;;;;;;;;4968407;28;20560;-66
2023/09/13 04:20:19;;;;;;;;;;;;;;;;;;4989005;28;20056;-65
2023/09/13 04:22:48;;;;;;;;;;;;;;;;;;4989121;28;19975;-63
2023/09/13 04:25:16;;;;;;;;;;;;;;;;;;4972981;28;20435;-64
2023/09/13 04:27:41;;;;;;;;;;;;;;;;;;4966921;28;19921;-68
2023/09/13 04:30:07;;;;;;;;;;;;;;;;;;4973018;28;20919;-66
2023/09/13 04:32:34;;;;;;;;;;;;;;;;;;4953208;28;19917;-67
2023/09/13 04:35:00;;;;;;;;;;;;;;;;;;4977000;28;20408;-67
2023/09/13 04:37:27;;;;;;;;;;;;;;;;;;4976839;28;20216;-67
2023/09/13 04:39:52;;;;;;;;;;;;;;;;;;4957325;28;19944;-68
2023/09/13 04:42:18;;;;;;;;;;;;;;;;;;4994943;28;20012;-68
2023/09/13 04:44:43;;;;;;;;;;;;;;;;;;4964159;28;19921;-68
2023/09/13 04:47:08;;;;;;;;;;;;;;;;;;4960782;28;19928;-68
2023/09/13 04:49:36;;;;;;;;;;;;;;;;;;4977561;28;19928;-69
2023/09/13 04:52:02;;;;;;;;;;;;;;;;;;4957419;28;19924;-69
2023/09/13 04:54:30;;;;;;;;;;;;;;;;;;4975952;28;19917;-67
2023/09/13 04:56:56;;;;;;;;;;;;;;;;;;4972723;28;19928;-66
2023/09/13 04:59:23;;;;;;;;;;;;;;;;;;4969943;28;19956;-67
2023/09/13 05:01:49;;;;;;;;;;;;;;;;;;4991570;28;19918;-67
2023/09/13 05:04:16;;;;;;;;;;;;;;;;;;4974662;28;20012;-67
2023/09/13 05:06:42;;;;;;;;;;;;;;;;;;4972405;28;19926;-67
2023/09/13 05:09:07;;;;;;;;;;;;;;;;;;4991160;28;19917;-67
2023/09/13 05:11:32;;;;;;;;;;;;;;;;;;4986086;28;20015;-68
2023/09/13 05:13:58;;;;;;;;;;;;;;;;;;4955793;28;19921;-70
2023/09/13 05:16:23;;;;;;;;;;;;;;;;;;4973738;28;19965;-66
2023/09/13 05:18:48;;;;;;;;;;;;;;;;;;4968080;28;19961;-67
2023/09/13 05:21:14;;;;;;;;;;;;;;;;;;4983566;28;20016;-69
2023/09/13 05:23:39;;;;;;;;;;;;;;;;;;4972192;28;19929;-66
2023/09/13 05:26:05;;;;;;;;;;;;;;;;;;4990547;28;19924;-66
2023/09/13 05:28:33;;;;;;;;;;;;;;;;;;4973626;28;19921;-67
2023/09/13 05:30:59;;;;;;;;;;;;;;;;;;4958040;28;20040;-68
2023/09/13 05:33:25;;;;;;;;;;;;;;;;;;4986495;28;19959;-68
2023/09/13 05:35:50;;;;;;;;;;;;;;;;;;4970992;28;20408;-68
2023/09/13 05:38:15;;;;;;;;;;;;;;;;;;4968770;28;19978;-65
2023/09/13 05:40:43;;;;;;;;;;;;;;;;;;4975753;28;19921;-68
2023/09/13 05:43:08;;;;;;;;;;;;;;;;;;4956963;28;19924;-70
2023/09/13 05:45:34;;;;;;;;;;;;;;;;;;4991538;28;20067;-69
2023/09/13 05:47:59;;;;;;;;;;;;;;;;;;4974896;28;19917;-68
2023/09/13 05:50:25;;;;;;;;;;;;;;;;;;4985691;28;19925;-69
2023/09/13 05:52:50;;;;;;;;;;;;;;;;;;4952763;28;19924;-69
2023/09/13 05:55:16;;;;;;;;;;;;;;;;;;4970604;28;19929;-70
2023/09/13 05:57:41;;;;;;;;;;;;;;;;;;4970863;28;19972;-69
2023/09/13 06:00:07;;;;;;;;;;;;;;;;;;4969968;28;20003;-68
2023/09/13 06:02:35;;;;;;;;;;;;;;;;;;4987075;28;19970;-69
2023/09/13 06:05:00;;;;;;;;;;;;;;;;;;4972855;28;19925;-68
2023/09/13 06:07:28;;;;;;;;;;;;;;;;;;4974507;28;19922;-68
2023/09/13 06:09:58;;;;;;;;;;;;;;;;;;4956273;28;19951;-69
2023/09/13 06:12:23;;;;;;;;;;;;;;;;;;4972756;28;20550;-68
2023/09/13 06:14:51;;;;;;;;;;;;;;;;;;4954262;28;19924;-68
2023/09/13 06:17:19;;;;;;;;;;;;;;;;;;4980796;28;19925;-68
2023/09/13 06:19:48;;;;;;;;;;;;;;;;;;4970697;28;20053;-69
2023/09/13 06:22:13;;;;;;;;;;;;;;;;;;4972908;28;20377;-68
2023/09/13 06:24:38;;;;;;;;;;;;;;;;;;4969837;28;19922;-68
2023/09/13 06:27:07;;;;;;;;;;;;;;;;;;4971416;28;19921;-69
2023/09/13 06:29:34;;;;;;;;;;;;;;;;;;4986769;28;20557;-68
2023/09/13 06:32:00;;;;;;;;;;;;;;;;;;4969717;28;19945;-70
2023/09/13 06:34:25;;;;;;;;;;;;;;;;;;4954199;28;20336;-68
2023/09/13 06:36:50;;;;;;;;;;;;;;;;;;4971067;28;19922;-69
2023/09/13 06:39:18;;;;;;;;;;;;;;;;;;4973404;28;19921;-69
2023/09/13 06:41:46;;;;;;;;;;;;;;;;;;4957342;28;20372;-68
2023/09/13 06:44:14;;;;;;;;;;;;;;;;;;4970122;28;20004;-72
2023/09/13 06:46:42;;;;;;;;;;;;;;;;;;4969011;28;20825;-68
2023/09/13 06:49:10;;;;;;;;;;;;;;;;;;4969021;28;19928;-68
2023/09/13 06:51:37;;;;;;;;;;;;;;;;;;4992894;28;20469;-69
2023/09/13 06:54:03;;;;;;;;;;;;;;;;;;4990525;28;20415;-71
2023/09/13 06:56:28;;;;;;;;;;;;;;;;;;4972672;28;19925;-68
2023/09/13 06:58:56;;;;;;;;;;;;;;;;;;4971098;28;19917;-68
2023/09/13 07:01:24;;;;;;;;;;;;;;;;;;4970872;28;19922;-68
2023/09/13 07:03:50;;;;;;;;;;;;;;;;;;5004941;28;20024;-69
2023/09/13 07:06:20;;;;;;;;;;;;;;;;;;4988127;28;20395;-70
2023/09/13 07:08:48;;;;;;;;;;;;;;;;;;4973361;28;19917;-69
2023/09/13 07:11:13;;;;;;;;;;;;;;;;;;4974739;28;20114;-72
2023/09/13 07:13:38;;;;;;;;;;;;;;;;;;4975799;28;20387;-68
2023/09/13 07:16:06;;;;;;;;;;;;;;;;;;4972524;28;20007;-68
2023/09/13 07:18:35;;;;;;;;;;;;;;;;;;4991644;28;22147;-68
2023/09/13 07:21:00;;;;;;;;;;;;;;;;;;4974922;28;19917;-68
2023/09/13 07:23:27;;;;;;;;;;;;;;;;;;4990769;28;21931;-67
2023/09/13 07:25:56;;;;;;;;;;;;;;;;;;4957507;28;19932;-67
2023/09/13 07:28:23;;;;;;;;;;;;;;;;;;4954989;28;19928;-68
2023/09/13 07:30:51;;;;;;;;;;;;;;;;;;4975030;28;19967;-68
2023/09/13 07:33:17;;;;;;;;;;;;;;;;;;4972997;28;19921;-66
2023/09/13 07:35:47;;;;;;;;;;;;;;;;;;4986922;28;20901;-68
2023/09/13 07:38:13;;;;;;;;;;;;;;;;;;4974659;28;20389;-70
2023/09/13 07:40:38;;;;;;;;;;;;;;;;;;4971827;28;20022;-69
2023/09/13 07:43:03;;;;;;;;;;;;;;;;;;4975653;28;19918;-70
2023/09/13 07:45:31;;;;;;;;;;;;;;;;;;4974579;28;21213;-70
2023/09/13 07:47:57;;;;;;;;;;;;;;;;;;4958449;28;19921;-67
2023/09/13 07:50:25;;;;;;;;;;;;;;;;;;4974661;28;19987;-67
2023/09/13 07:52:55;;;;;;;;;;;;;;;;;;4989768;28;19928;-67
2023/09/13 07:55:23;;;;;;;;;;;;;;;;;;4990843;28;20107;-68
2023/09/13 07:57:49;;;;;;;;;;;;;;;;;;4990208;28;19925;-67
2023/09/13 08:00:14;;;;;;;;;;;;;;;;;;4976112;28;19921;-67
2023/09/13 08:02:41;;;;;;;;;;;;;;;;;;4990016;28;19964;-66
2023/09/13 08:05:06;;;;;;;;;;;;;;;;;;4975711;28;19979;-67
2023/09/13 08:07:32;;;;;;;;;;;;;;;;;;4969770;28;20038;-66
2023/09/13 08:09:58;;;;;;;;;;;;;;;;;;4971595;28;21181;-67
2023/09/13 08:12:26;;;;;;;;;;;;;;;;;;4959180;28;19936;-67
2023/09/13 08:14:51;;;;;;;;;;;;;;;;;;4992137;28;20573;-68
2023/09/13 08:17:17;;;;;;;;;;;;;;;;;;4973314;28;20020;-68
2023/09/13 08:19:43;;;;;;;;;;;;;;;;;;4973179;28;20056;-66
2023/09/13 08:22:10;;;;;;;;;;;;;;;;;;4958061;28;19921;-68
2023/09/13 08:24:40;;;;;;;;;;;;;;;;;;4993388;28;19921;-67
2023/09/13 08:27:06;;;;;;;;;;;;;;;;;;4996135;28;19921;-65
2023/09/13 08:29:31;;;;;;;;;;;;;;;;;;4985988;28;19991;-66
2023/09/13 08:31:59;;;;;;;;;;;;;;;;;;4973642;28;19993;-64
2023/09/13 08:34:27;;;;;;;;;;;;;;;;;;4954758;28;20004;-66
2023/09/13 08:36:55;;;;;;;;;;;;;;;;;;4974625;28;20944;-68
2023/09/13 08:39:20;;;;;;;;;;;;;;;;;;4972759;28;19921;-66
2023/09/13 08:41:50;;;;;;;;;;;;;;;;;;4973448;28;19965;-63
2023/09/13 08:44:15;;;;;;;;;;;;;;;;;;4971869;28;19921;-64
2023/09/13 08:46:40;;;;;;;;;;;;;;;;;;4973805;28;20024;-65
2023/09/13 08:49:09;;;;;;;;;;;;;;;;;;4989544;28;20004;-64
2023/09/13 08:51:35;;;;;;;;;;;;;;;;;;4967616;28;19937;-66
2023/09/13 08:54:02;;;;;;;;;;;;;;;;;;4970915;28;19922;-64
2023/09/13 08:56:31;;;;;;;;;;;;;;;;;;4953548;28;20773;-63
2023/09/13 08:58:59;;;;;;;;;;;;;;;;;;4985452;28;20002;-65
2023/09/13 09:01:27;;;;;;;;;;;;;;;;;;4968000;28;19999;-63
2023/09/13 09:03:53;;;;;;;;;;;;;;;;;;4951022;28;19917;-63
2023/09/13 09:06:26;;;;;;;;;;;;;;;;;;4968181;28;19922;-62
2023/09/13 09:08:56;;;;;;;;;;;;;;;;;;4971232;28;19961;-62
2023/09/13 09:11:22;;;;;;;;;;;;;;;;;;4948638;28;19933;-64
2023/09/13 09:13:49;;;;;;;;;;;;;;;;;;4971835;28;19922;-64
2023/09/13 09:16:14;;;;;;;;;;;;;;;;;;4967890;28;19961;-64
2023/09/13 09:18:43;;;;;;;;;;;;;;;;;;4972283;28;21930;-63
2023/09/13 09:21:11;;;;;;;;;;;;;;;;;;4971615;28;19928;-64
2023/09/13 09:23:38;;;;;;;;;;;;;;;;;;4973981;28;19932;-64
2023/09/13 09:26:09;;;;;;;;;;;;;;;;;;4974250;28;19929;-64
2023/09/13 09:28:36;;;;;;;;;;;;;;;;;;4974420;28;20282;-64
2023/09/13 09:31:05;;;;;;;;;;;;;;;;;;4970166;28;19932;-65
2023/09/13 09:33:31;;;;;;;;;;;;;;;;;;4985761;28;21779;-63
2023/09/13 09:35:56;;;;;;;;;;;;;;;;;;4971683;28;19918;-63
2023/09/13 09:38:21;;;;;;;;;;;;;;;;;;4967443;28;19976;-63
2023/09/13 09:40:49;;;;;;;;;;;;;;;;;;4948531;28;20331;-62
2023/09/13 09:43:15;;;;;;;;;;;;;;;;;;4969424;28;20004;-64
2023/09/13 09:45:41;;;;;;;;;;;;;;;;;;4948305;28;20123;-64
2023/09/13 09:48:06;;;;;;;;;;;;;;;;;;4972220;28;19925;-64
2023/09/13 09:50:32;;;;;;;;;;;;;;;;;;4988045;28;20802;-63
2023/09/13 09:52:57;;;;;;;;;;;;;;;;;;4971982;28;20009;-64
2023/09/13 09:55:23;;;;;;;;;;;;;;;;;;4969090;28;19922;-63
2023/09/13 09:57:48;;;;;;;;;;;;;;;;;;4951829;28;20021;-63
2023/09/13 10:00:13;;;;;;;;;;;;;;;;;;4960592;28;19933;-63
2023/09/13 10:02:39;;;;;;;;;;;;;;;;;;4972642;28;19922;-64
2023/09/13 10:05:05;;;;;;;;;;;;;;;;;;4971836;28;19922;-62
2023/09/13 10:07:31;;;;;;;;;;;;;;;;;;4953180;28;20009;-63
2023/09/13 10:09:56;;;;;;;;;;;;;;;;;;4948754;28;19980;-63
2023/09/13 10:12:22;;;;;;;;;;;;;;;;;;4985000;28;19928;-63
2023/09/13 10:14:50;;;;;;;;;;;;;;;;;;4985189;28;20273;-62
2023/09/13 10:17:15;;;;;;;;;;;;;;;;;;4968971;28;19922;-63
2023/09/13 10:19:43;;;;;;;;;;;;;;;;;;4967483;28;19921;-62
2023/09/13 10:22:08;;;;;;;;;;;;;;;;;;4949423;28;20056;-62
2023/09/13 10:24:36;;;;;;;;;;;;;;;;;;4951735;28;19921;-62
2023/09/13 10:27:02;;;;;;;;;;;;;;;;;;4973573;28;20041;-63
2023/09/13 10:29:27;;;;;;;;;;;;;;;;;;4965226;28;20005;-62
2023/09/13 10:31:55;;;;;;;;;;;;;;;;;;4984484;28;20029;-62
2023/09/13 10:34:21;;;;;;;;;;;;;;;;;;4972645;28;19929;-63
2023/09/13 10:36:47;;;;;;;;;;;;;;;;;;4968649;28;19925;-60
2023/09/13 10:39:16;;;;;;;;;;;;;;;;;;4968872;28;20142;-63
2023/09/13 10:41:41;;;;;;;;;;;;;;;;;;4952179;28;20403;-62
2023/09/13 10:44:09;;;;;;;;;;;;;;;;;;4949955;28;19928;-62
2023/09/13 10:46:34;;;;;;;;;;;;;;;;;;4956030;28;19941;-64
2023/09/13 10:49:03;;;;;;;;;;;;;;;;;;4964680;28;20025;-64
2023/09/13 10:51:28;;;;;;;;;;;;;;;;;;4983428;28;20873;-63
2023/09/13 10:53:54;;;;;;;;;;;;;;;;;;4981986;28;20008;-63
2023/09/13 10:56:24;;;;;;;;;;;;;;;;;;4988359;28;20377;-63
2023/09/13 10:58:52;;;;;;;;;;;;;;;;;;4986077;28;19914;-61
2023/09/13 11:01:17;;;;;;;;;;;;;;;;;;4969381;28;19924;-62
2023/09/13 11:03:43;;;;;;;;;;;;;;;;;;4991292;28;19914;-61
2023/09/13 11:06:08;;;;;;;;;;;;;;;;;;4952209;28;20658;-60
2023/09/13 11:08:34;;;;;;;;;;;;;;;;;;4972882;28;19914;-61
2023/09/13 11:11:08;;;;;;;;;;;;;;;;;;4974332;28;19968;-63
2023/09/13 11:13:41;;;;;;;;;;;;;;;;;;4974971;28;19957;-60
2023/09/13 11:16:15;;;;;;;;;;;;;;;;;;5010123;28;19955;-61
2023/09/13 11:18:44;;;;;;;;;;;;;;;;;;5006117;28;19913;-61
2023/09/13 11:21:14;;;;;;;;;;;;;;;;;;4978330;28;19933;-61
2023/09/13 11:24:31;;;;;;;;;;;;;;;;;;4979165;28;20072;-61
2023/09/13 11:26:57;;;;;;;;;;;;;;;;;;5003518;28;19914;-60
2023/09/13 11:32:41;;;;;;;;;;;;;;;;;;4994942;28;19924;-62
2023/09/13 11:35:07;;;;;;;;;;;;;;;;;;4980032;28;21031;-61
2023/09/13 11:37:38;;;;;;;;;;;;;;;;;;5002972;28;19966;-61
2023/09/13 11:40:13;;;;;;;;;;;;;;;;;;4970582;28;20048;-60
2023/09/13 11:42:40;;;;;;;;;;;;;;;;;;4955342;28;19957;-60
2023/09/13 11:45:06;;;;;;;;;;;;;;;;;;4971992;28;20014;-61
2023/09/13 11:47:31;;;;;;;;;;;;;;;;;;4965439;28;20719;-61
2023/09/13 11:49:56;;;;;;;;;;;;;;;;;;4968951;28;19921;-62
2023/09/13 11:52:29;;;;;;;;;;;;;;;;;;4984517;28;19986;-60
2023/09/13 11:54:55;;;;;;;;;;;;;;;;;;4971036;28;20439;-61
2023/09/13 11:57:24;;;;;;;;;;;;;;;;;;4969872;28;20001;-61
2023/09/13 11:59:50;;;;;;;;;;;;;;;;;;4974352;28;20446;-61
2023/09/13 12:02:18;;;;;;;;;;;;;;;;;;4987564;28;19921;-61
2023/09/13 12:04:43;;;;;;;;;;;;;;;;;;4974645;28;19921;-60
2023/09/13 12:07:08;;;;;;;;;;;;;;;;;;4972809;28;19944;-61
2023/09/13 12:09:37;;;;;;;;;;;;;;;;;;4991474;28;19934;-61
2023/09/13 12:12:05;;;;;;;;;;;;;;;;;;4974669;28;19929;-60
2023/09/13 12:14:37;;;;;;;;;;;;;;;;;;4972295;28;19929;-61
2023/09/13 12:17:08;;;;;;;;;;;;;;;;;;4958414;28;20431;-61
2023/09/13 12:19:33;;;;;;;;;;;;;;;;;;4953026;28;19921;-62
2023/09/13 12:21:58;;;;;;;;;;;;;;;;;;4991976;28;20353;-62
2023/09/13 12:24:24;;;;;;;;;;;;;;;;;;4957496;28;20218;-61
2023/09/13 12:26:51;;;;;;;;;;;;;;;;;;4990285;28;19921;-60
2023/09/13 12:29:17;;;;;;;;;;;;;;;;;;4991917;28;19953;-61
2023/09/13 12:31:45;;;;;;;;;;;;;;;;;;4972932;28;19925;-61
2023/09/13 12:34:10;;;;;;;;;;;;;;;;;;4991131;28;22012;-61
2023/09/13 12:36:39;;;;;;;;;;;;;;;;;;4958142;28;19917;-62
2023/09/13 12:39:05;;;;;;;;;;;;;;;;;;4972393;28;19929;-60
2023/09/13 12:41:31;;;;;;;;;;;;;;;;;;4972755;28;19928;-60
2023/09/13 12:43:59;;;;;;;;;;;;;;;;;;4974278;28;19921;-62
2023/09/13 12:46:27;;;;;;;;;;;;;;;;;;4973382;28;19976;-62
2023/09/13 12:48:59;;;;;;;;;;;;;;;;;;4970494;28;19921;-60
2023/09/13 12:51:25;;;;;;;;;;;;;;;;;;4952605;28;19930;-60
2023/09/13 12:53:53;;;;;;;;;;;;;;;;;;4958911;28;21249;-61
2023/09/13 12:56:19;;;;;;;;;;;;;;;;;;4960147;28;20372;-63
2023/09/13 12:58:44;;;;;;;;;;;;;;;;;;4978410;28;19921;-62
2023/09/13 13:01:09;;;;;;;;;;;;;;;;;;4993994;28;19928;-61
2023/09/13 13:03:37;;;;;;;;;;;;;;;;;;4994504;28;20460;-62
2023/09/13 13:06:04;;;;;;;;;;;;;;;;;;4994815;28;20500;-62
2023/09/13 13:08:29;;;;;;;;;;;;;;;;;;4975538;28;19983;-62
2023/09/13 13:10:55;;;;;;;;;;;;;;;;;;4975758;28;20423;-62
2023/09/13 13:13:20;;;;;;;;;;;;;;;;;;4959662;28;19924;-62
2023/09/13 13:15:51;;;;;;;;;;;;;;;;;;4973734;28;20012;-63
2023/09/13 13:18:17;;;;;;;;;;;;;;;;;;4988991;28;19975;-61
2023/09/13 13:20:42;;;;;;;;;;;;;;;;;;4968770;28;19925;-62
2023/09/13 13:23:07;;;;;;;;;;;;;;;;;;4971979;28;19917;-63
2023/09/13 13:25:36;;;;;;;;;;;;;;;;;;4986548;28;19921;-60
2023/09/13 13:28:01;;;;;;;;;;;;;;;;;;4972793;28;19972;-61
2023/09/13 13:30:26;;;;;;;;;;;;;;;;;;4974690;28;19918;-61
2023/09/13 13:32:52;;;;;;;;;;;;;;;;;;4988883;28;20645;-62
2023/09/13 13:35:20;;;;;;;;;;;;;;;;;;4993804;28;20133;-62
2023/09/13 13:37:48;;;;;;;;;;;;;;;;;;4992143;28;20358;-61
2023/09/13 13:40:16;;;;;;;;;;;;;;;;;;4972642;28;19935;-62
2023/09/13 13:42:42;;;;;;;;;;;;;;;;;;4981099;28;20001;-61
2023/09/13 13:45:11;;;;;;;;;;;;;;;;;;4984936;28;19976;-62
2023/09/13 13:47:36;;;;;;;;;;;;;;;;;;4990050;28;19948;-62
2023/09/13 13:50:01;;;;;;;;;;;;;;;;;;4972397;28;19921;-62
2023/09/13 13:52:27;;;;;;;;;;;;;;;;;;4992443;28;19941;-62
2023/09/13 13:54:52;;;;;;;;;;;;;;;;;;4988663;28;19975;-63
2023/09/13 13:57:17;;;;;;;;;;;;;;;;;;4967355;28;20361;-61
2023/09/13 13:59:43;;;;;;;;;;;;;;;;;;4988138;28;19917;-62
2023/09/13 14:02:10;;;;;;;;;;;;;;;;;;4967526;28;20825;-62
2023/09/13 14:04:38;;;;;;;;;;;;;;;;;;4991536;28;20019;-62
2023/09/13 14:07:03;;;;;;;;;;;;;;;;;;4969225;28;19929;-62
2023/09/13 14:09:29;;;;;;;;;;;;;;;;;;4984220;28;19943;-63
2023/09/13 14:11:58;;;;;;;;;;;;;;;;;;4986918;28;20686;-62
2023/09/13 14:14:23;;;;;;;;;;;;;;;;;;4968588;28;20007;-62
2023/09/13 14:16:53;;;;;;;;;;;;;;;;;;4970538;28;19992;-62
2023/09/13 14:19:19;;;;;;;;;;;;;;;;;;4972011;28;20012;-61
2023/09/13 14:21:47;;;;;;;;;;;;;;;;;;4974257;28;19917;-62
2023/09/13 14:24:13;;;;;;;;;;;;;;;;;;4992641;28;19971;-63
2023/09/13 14:26:39;;;;;;;;;;;;;;;;;;4991255;28;20039;-63
2023/09/13 14:29:08;;;;;;;;;;;;;;;;;;4986234;28;20367;-62
2023/09/13 14:31:36;;;;;;;;;;;;;;;;;;4969626;28;19932;-62
2023/09/13 14:34:04;;;;;;;;;;;;;;;;;;4969130;28;20095;-61
2023/09/13 14:36:32;;;;;;;;;;;;;;;;;;4963699;28;19971;-61
2023/09/13 14:38:58;;;;;;;;;;;;;;;;;;4984455;28;20491;-61
2023/09/13 14:41:26;;;;;;;;;;;;;;;;;;4958447;28;20008;-61
2023/09/13 14:43:54;;;;;;;;;;;;;;;;;;4974356;28;19924;-62
2023/09/13 14:46:19;;;;;;;;;;;;;;;;;;4971049;28;19922;-61
2023/09/13 14:48:51;;;;;;;;;;;;;;;;;;4969677;28;19975;-62
2023/09/13 14:51:19;;;;;;;;;;;;;;;;;;4964671;28;19937;-62
2023/09/13 14:53:44;;;;;;;;;;;;;;;;;;4967594;28;19942;-60
2023/09/13 14:56:12;;;;;;;;;;;;;;;;;;4975189;28;20483;-61
2023/09/13 14:58:37;;;;;;;;;;;;;;;;;;4964657;28;20004;-62
2023/09/13 15:01:05;;;;;;;;;;;;;;;;;;4947360;28;19918;-61
2023/09/13 15:03:35;;;;;;;;;;;;;;;;;;4964571;28;20004;-61
2023/09/13 15:06:06;;;;;;;;;;;;;;;;;;4969486;28;19918;-62
2023/09/13 15:08:32;;;;;;;;;;;;;;;;;;4951952;28;20057;-61
2023/09/13 15:10:57;;;;;;;;;;;;;;;;;;4966288;28;21045;-61
2023/09/13 15:13:22;;;;;;;;;;;;;;;;;;4981668;28;19928;-62
2023/09/13 15:15:50;;;;;;;;;;;;;;;;;;4942256;28;20004;-62
2023/09/13 15:18:18;;;;;;;;;;;;;;;;;;4963600;28;19929;-62
2023/09/13 15:20:49;;;;;;;;;;;;;;;;;;4967334;28;19979;-62
2023/09/13 15:23:17;;;;;;;;;;;;;;;;;;4966008;28;19922;-62
2023/09/13 15:25:42;;;;;;;;;;;;;;;;;;4969492;28;19921;-62
2023/09/13 15:28:10;;;;;;;;;;;;;;;;;;4963682;28;19964;-62
2023/09/13 15:30:38;;;;;;;;;;;;;;;;;;4949660;28;19926;-61
2023/09/13 15:33:06;;;;;;;;;;;;;;;;;;4969060;28;19933;-61
2023/09/13 15:35:32;;;;;;;;;;;;;;;;;;4969262;28;19917;-61
2023/09/13 15:37:57;;;;;;;;;;;;;;;;;;4970042;28;20567;-61
2023/09/13 15:40:23;;;;;;;;;;;;;;;;;;4986543;28;20621;-61
2023/09/13 15:42:56;;;;;;;;;;;;;;;;;;4969059;28;19991;-63
2023/09/13 15:45:24;;;;;;;;;;;;;;;;;;4971714;28;19924;-61
2023/09/13 15:47:49;;;;;;;;;;;;;;;;;;4968106;28;19926;-61
2023/09/13 15:50:14;;;;;;;;;;;;;;;;;;4968251;28;19924;-61
2023/09/13 15:52:44;;;;;;;;;;;;;;;;;;4964116;28;19999;-63
2023/09/13 15:55:11;;;;;;;;;;;;;;;;;;4985832;28;20038;-62
2023/09/13 15:57:36;;;;;;;;;;;;;;;;;;4965394;28;20003;-62
2023/09/13 16:00:03;;;;;;;;;;;;;;;;;;4970772;28;19917;-62
2023/09/13 16:02:29;;;;;;;;;;;;;;;;;;4967904;28;22221;-61
2023/09/13 16:04:56;;;;;;;;;;;;;;;;;;4952738;28;19921;-61
2023/09/13 16:07:21;;;;;;;;;;;;;;;;;;4968562;28;21074;-61
2023/09/13 16:09:47;;;;;;;;;;;;;;;;;;4984833;28;19929;-61
2023/09/13 16:12:12;;;;;;;;;;;;;;;;;;4965771;28;19932;-61
2023/09/13 16:14:37;;;;;;;;;;;;;;;;;;4945951;28;19922;-62
2023/09/13 16:17:03;;;;;;;;;;;;;;;;;;4969857;28;19922;-62
2023/09/13 16:19:33;;;;;;;;;;;;;;;;;;4975545;28;20008;-61
2023/09/13 16:21:58;;;;;;;;;;;;;;;;;;4947151;28;19952;-62
2023/09/13 16:24:29;;;;;;;;;;;;;;;;;;4964038;28;19922;-61
2023/09/13 16:26:56;;;;;;;;;;;;;;;;;;4968400;28;19922;-60
2023/09/13 16:29:21;;;;;;;;;;;;;;;;;;4982123;28;20428;-61
2023/09/13 16:31:49;;;;;;;;;;;;;;;;;;4971145;28;19922;-61
2023/09/13 16:34:14;;;;;;;;;;;;;;;;;;4970787;28;20286;-61
2023/09/13 16:36:42;;;;;;;;;;;;;;;;;;4971490;28;19979;-61
2023/09/13 16:39:12;;;;;;;;;;;;;;;;;;4987265;28;19922;-61
2023/09/13 16:41:37;;;;;;;;;;;;;;;;;;4966233;28;19918;-61
2023/09/13 16:44:05;;;;;;;;;;;;;;;;;;4972690;28;19929;-61
2023/09/13 16:46:31;;;;;;;;;;;;;;;;;;4973000;28;19918;-62
2023/09/13 16:48:59;;;;;;;;;;;;;;;;;;4965604;28;20595;-61